createdAt,value
2023-01-23T00:01:09.031Z,0.24
2023-01-23T00:03:35.545Z,0.28
2023-01-23T00:06:06.753Z,0.25
2023-01-23T00:08:35.121Z,0.31
2023-01-23T00:11:05.416Z,0.33
2023-01-23T00:13:32.072Z,0.14
2023-01-23T00:16:03.986Z,0.23
2023-01-23T00:18:30.578Z,0.26
2023-01-23T00:20:58.455Z,0.22
2023-01-23T00:23:24.994Z,0.03
2023-01-23T00:25:51.527Z,0.03
2023-01-23T00:28:18.070Z,0.18
2023-01-23T00:30:44.691Z,0.19
2023-01-23T00:33:11.344Z,0.06
2023-01-23T00:35:37.864Z,0.11
2023-01-23T00:38:05.165Z,0.01
2023-01-23T00:40:31.740Z,0.15
2023-01-23T00:42:58.252Z,0.26
2023-01-23T00:45:24.806Z,0.11
2023-01-23T00:47:51.331Z,0.16
2023-01-23T00:50:18.099Z,0.20
2023-01-23T00:52:44.843Z,0.07
2023-01-23T00:55:11.450Z,-0.06
2023-01-23T00:57:37.976Z,0.06
2023-01-23T01:00:05.059Z,0.04
2023-01-23T01:02:31.593Z,0.17
2023-01-23T01:04:58.387Z,0.15
2023-01-23T01:07:25.026Z,0.12
2023-01-23T01:09:51.860Z,-0.01
2023-01-23T01:12:19.343Z,-0.01
2023-01-23T01:14:45.977Z,0.14
2023-01-23T01:17:12.505Z,0.07
2023-01-23T01:19:39.031Z,0.10
2023-01-23T01:22:05.600Z,0.19
2023-01-23T01:24:32.131Z,0.37
2023-01-23T01:26:58.660Z,0.19
2023-01-23T01:29:25.246Z,0.11
2023-01-23T01:31:51.846Z,0.10
2023-01-23T01:34:18.486Z,0.16
2023-01-23T01:36:45.518Z,0.09
2023-01-23T01:39:12.057Z,0.09
2023-01-23T01:41:38.579Z,0.23
2023-01-23T01:44:05.234Z,0.11
2023-01-23T01:46:33.223Z,0.06
2023-01-23T01:49:06.783Z,0.36
2023-01-23T01:51:44.418Z,0.41
2023-01-23T01:54:22.295Z,0.20
2023-01-23T01:56:52.846Z,0.02
2023-01-23T01:59:20.421Z,0.10
2023-01-23T02:01:47.913Z,0.04
2023-01-23T02:04:15.679Z,0.11
2023-01-23T02:06:44.272Z,0.26
2023-01-23T02:09:17.979Z,0.10
2023-01-23T02:11:45.365Z,0.24
2023-01-23T02:14:12.237Z,0.29
2023-01-23T02:16:41.224Z,0.38
2023-01-23T02:19:22.974Z,0.34
2023-01-23T02:21:51.875Z,0.36
2023-01-23T02:24:59.004Z,0.44
2023-01-23T02:27:27.727Z,0.29
2023-01-23T02:29:56.204Z,0.23
2023-01-23T02:32:24.499Z,0.06
2023-01-23T02:34:55.090Z,0.09
2023-01-23T02:37:24.475Z,0.33
2023-01-23T02:39:50.964Z,0.46
2023-01-23T02:42:20.055Z,0.49
2023-01-23T02:44:47.276Z,0.50
2023-01-23T02:47:13.862Z,0.61
2023-01-23T02:49:40.699Z,0.59
2023-01-23T02:52:07.690Z,0.30
2023-01-23T02:54:34.240Z,0.18
2023-01-23T02:57:00.836Z,0.10
2023-01-23T02:59:46.351Z,-0.03
2023-01-23T03:02:14.461Z,0.12
2023-01-23T03:04:41.468Z,0.10
2023-01-23T03:07:08.188Z,0.07
2023-01-23T03:09:34.935Z,0.05
2023-01-23T03:12:02.177Z,0.20
2023-01-23T03:14:30.075Z,0.16
2023-01-23T03:16:56.717Z,0.13
2023-01-23T03:19:25.399Z,0.28
2023-01-23T03:21:52.324Z,0.20
2023-01-23T03:24:19.905Z,0.23
2023-01-23T03:26:47.544Z,0.32
2023-01-23T03:29:39.867Z,0.07
2023-01-23T03:32:07.008Z,0.04
2023-01-23T03:34:34.283Z,0.01
2023-01-23T03:37:01.762Z,0.15
2023-01-23T03:39:46.762Z,-0.05
2023-01-23T03:42:13.425Z,-0.03
2023-01-23T03:44:42.647Z,0.27
2023-01-23T03:47:09.608Z,0.26
2023-01-23T03:49:36.569Z,0.41
2023-01-23T03:52:04.992Z,0.36
2023-01-23T03:54:37.458Z,0.58
2023-01-23T03:57:04.057Z,0.66
2023-01-23T03:59:30.639Z,0.59
2023-01-23T04:01:58.103Z,0.26
2023-01-23T04:04:24.636Z,-0.01
2023-01-23T04:06:51.138Z,0.15
2023-01-23T04:09:17.820Z,-0.23
2023-01-23T04:11:44.371Z,-0.12
2023-01-23T04:14:12.398Z,-0.18
2023-01-23T04:16:38.981Z,0.12
2023-01-23T04:19:05.515Z,0.27
2023-01-23T04:21:32.061Z,0.38
2023-01-23T04:23:59.190Z,0.54
2023-01-23T04:26:28.180Z,0.19
2023-01-23T04:28:54.739Z,0.19
2023-01-23T04:31:21.529Z,0.02
2023-01-23T04:33:48.199Z,0.20
2023-01-23T04:36:14.793Z,0.52
2023-01-23T04:38:41.400Z,0.56
2023-01-23T04:41:08.018Z,0.62
2023-01-23T04:43:35.896Z,0.47
2023-01-23T04:46:02.472Z,0.24
2023-01-23T04:48:28.986Z,0.23
2023-01-23T04:50:56.768Z,0.19
2023-01-23T04:53:23.301Z,0.04
2023-01-23T04:55:52.299Z,0.35
2023-01-23T04:58:21.563Z,0.28
2023-01-23T05:00:48.497Z,-0.07
2023-01-23T05:03:15.522Z,-0.01
2023-01-23T05:05:44.118Z,-0.05
2023-01-23T05:08:14.343Z,0.02
2023-01-23T05:10:41.094Z,0.05
2023-01-23T05:13:09.573Z,0.21
2023-01-23T05:15:36.356Z,0.27
2023-01-23T05:18:03.356Z,0.11
2023-01-23T05:20:29.906Z,0.12
2023-01-23T05:22:58.679Z,0.08
2023-01-23T05:25:27.868Z,0.06
2023-01-23T05:27:55.265Z,-0.11
2023-01-23T05:30:25.556Z,-0.11
2023-01-23T05:32:52.321Z,-0.12
2023-01-23T05:35:19.526Z,-0.11
2023-01-23T05:37:51.802Z,0.13
2023-01-23T05:40:20.302Z,0.00
2023-01-23T05:42:48.175Z,-0.05
2023-01-23T05:45:15.141Z,0.09
2023-01-23T05:47:42.138Z,-0.07
2023-01-23T05:50:11.251Z,0.01
2023-01-23T05:52:37.757Z,0.12
2023-01-23T05:55:04.555Z,0.22
2023-01-23T05:57:31.293Z,0.33
2023-01-23T05:59:58.301Z,0.34
2023-01-23T06:02:24.933Z,0.19
2023-01-23T06:04:51.567Z,0.12
2023-01-23T06:07:19.498Z,0.42
2023-01-23T06:09:46.551Z,0.39
2023-01-23T06:12:13.386Z,0.22
2023-01-23T06:14:43.029Z,0.26
2023-01-23T06:17:11.520Z,0.57
2023-01-23T06:19:38.073Z,0.31
2023-01-23T06:22:04.909Z,0.11
2023-01-23T06:24:31.433Z,0.19
2023-01-23T06:26:59.418Z,0.10
2023-01-23T06:29:26.112Z,0.07
2023-01-23T06:31:52.674Z,-0.04
2023-01-23T06:34:21.342Z,-0.02
2023-01-23T06:36:50.514Z,-0.08
2023-01-23T06:39:19.382Z,0.10
2023-01-23T06:41:45.954Z,0.03
2023-01-23T06:44:12.728Z,-0.09
2023-01-23T06:46:39.345Z,0.02
2023-01-23T06:49:06.441Z,-0.04
2023-01-23T06:51:35.551Z,0.02
2023-01-23T06:54:03.578Z,0.10
2023-01-23T06:56:30.428Z,0.12
2023-01-23T06:58:57.036Z,0.14
2023-01-23T07:01:24.118Z,0.16
2023-01-23T07:03:50.746Z,0.25
2023-01-23T07:06:19.701Z,0.04
2023-01-23T07:08:46.879Z,0.10
2023-01-23T07:11:13.552Z,0.15
2023-01-23T07:13:40.121Z,0.27
2023-01-23T07:16:07.053Z,0.37
2023-01-23T07:18:36.051Z,0.27
2023-01-23T07:21:07.208Z,0.19
2023-01-23T07:23:43.109Z,0.05
2023-01-23T07:26:12.884Z,0.23
2023-01-23T07:28:39.586Z,0.32
2023-01-23T07:31:06.635Z,0.17
2023-01-23T07:33:33.263Z,0.09
2023-01-23T07:35:59.781Z,0.28
2023-01-23T07:38:26.403Z,0.32
2023-01-23T07:40:53.144Z,0.35
2023-01-23T07:43:19.812Z,0.43
2023-01-23T07:45:46.404Z,0.32
2023-01-23T07:48:15.142Z,0.47
2023-01-23T07:50:46.766Z,0.35
2023-01-23T07:53:13.334Z,0.14
2023-01-23T07:55:42.445Z,0.15
2023-01-23T07:58:09.495Z,0.12
2023-01-23T08:00:36.111Z,0.15
2023-01-23T08:03:02.684Z,0.10
2023-01-23T08:05:29.221Z,0.16
2023-01-23T08:08:12.216Z,0.34
2023-01-23T08:10:39.878Z,0.24
2023-01-23T08:13:06.473Z,0.26
2023-01-23T08:15:33.099Z,0.37
2023-01-23T08:17:59.778Z,0.13
2023-01-23T08:20:26.367Z,0.16
2023-01-23T08:22:52.927Z,0.31
2023-01-23T08:25:19.595Z,0.63
2023-01-23T08:27:46.252Z,0.56
2023-01-23T08:30:13.257Z,0.62
2023-01-23T08:32:40.161Z,0.74
2023-01-23T08:35:07.368Z,0.61
2023-01-23T08:37:34.583Z,0.73
2023-01-23T08:40:01.436Z,0.71
2023-01-23T08:42:28.293Z,0.75
2023-01-23T08:44:56.338Z,0.74
2023-01-23T08:47:23.794Z,0.78
2023-01-23T08:49:50.605Z,0.73
2023-01-23T08:52:17.548Z,0.53
2023-01-23T08:54:44.250Z,0.70
2023-01-23T08:57:12.166Z,0.74
2023-01-23T08:59:41.346Z,0.67
2023-01-23T09:02:12.853Z,0.73
2023-01-23T09:04:43.151Z,0.84
2023-01-23T09:07:09.704Z,0.76
2023-01-23T09:09:36.437Z,0.62
2023-01-23T09:12:03.156Z,0.41
2023-01-23T09:14:29.738Z,0.38
2023-01-23T09:16:56.595Z,0.49
2023-01-23T09:19:23.160Z,0.57
2023-01-23T09:21:49.695Z,0.76
2023-01-23T09:24:17.103Z,0.70
2023-01-23T09:26:44.639Z,0.59
2023-01-23T09:29:11.201Z,0.80
2023-01-23T09:31:40.416Z,0.85
2023-01-23T09:34:09.934Z,0.74
2023-01-23T09:36:43.148Z,0.90
2023-01-23T09:39:11.254Z,0.58
2023-01-23T09:41:39.433Z,0.47
2023-01-23T09:44:13.418Z,0.61
2023-01-23T09:47:02.580Z,0.23
2023-01-23T09:49:54.050Z,0.36
2023-01-23T09:52:23.764Z,0.65
2023-01-23T09:54:53.812Z,0.77
2023-01-23T09:57:28.168Z,0.80
2023-01-23T10:00:36.759Z,0.80
2023-01-23T10:03:14.623Z,0.70
2023-01-23T10:06:15.187Z,0.62
2023-01-23T10:08:51.048Z,0.59
2023-01-23T10:11:29.484Z,0.39
2023-01-23T10:14:36.804Z,0.40
2023-01-23T10:17:06.430Z,0.25
2023-01-23T10:20:02.394Z,0.37
2023-01-23T10:23:01.385Z,0.27
2023-01-23T10:25:33.112Z,0.10
2023-01-23T10:28:22.224Z,0.00
2023-01-23T10:30:55.631Z,0.01
2023-01-23T10:33:37.098Z,0.08
2023-01-23T10:36:08.242Z,-0.06
2023-01-23T10:38:49.981Z,-0.13
2023-01-23T10:41:23.568Z,-0.06
2023-01-23T10:43:53.473Z,0.07
2023-01-23T10:46:25.431Z,0.13
2023-01-23T10:48:54.975Z,0.20
2023-01-23T10:51:30.007Z,0.27
2023-01-23T10:54:13.062Z,0.34
2023-01-23T10:56:51.898Z,0.38
2023-01-23T10:59:34.146Z,0.40
2023-01-23T11:02:18.806Z,0.37
2023-01-23T11:04:50.042Z,0.45
2023-01-23T11:07:47.217Z,0.26
2023-01-23T11:10:18.699Z,0.08
2023-01-23T11:12:50.620Z,0.01
2023-01-23T11:15:29.299Z,0.06
2023-01-23T11:17:57.603Z,0.30
2023-01-23T11:20:37.325Z,0.56
2023-01-23T11:23:05.348Z,0.61
2023-01-23T11:25:42.042Z,0.61
2023-01-23T11:28:33.884Z,0.63
2023-01-23T11:31:15.381Z,0.69
2023-01-23T11:34:03.984Z,0.62
2023-01-23T11:36:48.710Z,0.46
2023-01-23T11:39:34.186Z,0.21
2023-01-23T11:42:01.108Z,0.45
2023-01-23T11:44:38.095Z,0.54
2023-01-23T11:47:59.977Z,0.47
2023-01-23T11:50:43.648Z,0.50
2023-01-23T11:53:43.749Z,0.67
2023-01-23T11:56:44.444Z,0.51
2023-01-23T11:59:34.496Z,0.42
2023-01-23T12:02:17.905Z,0.54
2023-01-23T12:08:54.073Z,0.58
2023-01-23T12:11:22.818Z,0.68
2023-01-23T12:14:27.129Z,0.59
2023-01-23T12:17:24.171Z,0.51
2023-01-23T12:20:17.099Z,0.52
2023-01-23T12:26:19.827Z,0.36
2023-01-23T12:29:22.784Z,0.43
2023-01-23T12:32:27.412Z,0.48
2023-01-23T12:34:59.947Z,0.53
2023-01-23T12:37:53.455Z,0.49
2023-01-23T12:40:39.405Z,0.45
2023-01-23T12:43:19.773Z,0.47
2023-01-23T12:45:56.360Z,0.46
2023-01-23T12:48:28.672Z,0.19
2023-01-23T12:51:08.413Z,0.08
2023-01-23T12:53:39.745Z,0.42
2023-01-23T12:56:36.219Z,0.48
2023-01-23T12:59:08.192Z,0.41
2023-01-23T13:02:11.851Z,0.51
2023-01-23T13:05:13.576Z,0.39
2023-01-23T13:08:03.912Z,0.46
2023-01-23T13:11:25.938Z,0.56
2023-01-23T13:13:54.105Z,0.87
2023-01-23T13:16:25.021Z,0.91
2023-01-23T13:19:20.047Z,0.91
2023-01-23T13:22:32.275Z,0.54
2023-01-23T13:25:17.725Z,0.43
2023-01-23T13:27:59.785Z,0.36
2023-01-23T13:30:26.696Z,0.45
2023-01-23T13:33:00.711Z,0.66
2023-01-23T13:36:01.015Z,0.52
2023-01-23T13:38:37.703Z,0.67
2023-01-23T13:41:18.872Z,0.62
2023-01-23T13:44:08.067Z,0.44
2023-01-23T14:22:08.067Z,0.55
2023-01-23T14:24:43.406Z,0.61
2023-01-23T14:27:22.025Z,0.62
2023-01-23T14:30:14.202Z,0.33
2023-01-23T14:32:48.524Z,0.52
2023-01-23T14:35:30.918Z,0.33
2023-01-23T14:38:00.965Z,0.43
2023-01-23T14:40:37.628Z,0.41
2023-01-23T14:43:20.249Z,0.27
2023-01-23T14:45:48.494Z,0.26
2023-01-23T14:48:20.338Z,0.24
2023-01-23T14:51:21.375Z,0.25
2023-01-23T14:54:10.195Z,0.28
2023-01-23T15:00:42.657Z,0.31
2023-01-23T15:03:12.549Z,0.25
2023-01-23T15:05:41.046Z,0.33
2023-01-23T15:08:31.949Z,0.33
2023-01-23T15:11:04.627Z,0.26
2023-01-23T15:13:38.142Z,0.31
2023-01-23T15:16:06.995Z,0.66
2023-01-23T15:18:35.307Z,0.39
2023-01-23T15:21:04.708Z,0.51
2023-01-23T15:23:34.994Z,0.38
2023-01-23T15:26:13.231Z,0.40
2023-01-23T15:28:55.806Z,0.44
2023-01-23T15:31:25.746Z,0.60
2023-01-23T15:33:52.607Z,0.90
2023-01-23T15:36:32.294Z,0.99
2023-01-23T15:38:59.817Z,0.77
2023-01-23T15:42:02.431Z,0.94
2023-01-23T15:44:31.255Z,0.97
2023-01-23T15:47:01.112Z,0.92
2023-01-23T15:49:28.863Z,0.59
2023-01-23T15:51:57.317Z,0.68
2023-01-23T15:54:28.070Z,0.51
2023-01-23T15:57:06.594Z,0.65
2023-01-23T15:59:34.794Z,0.77
2023-01-23T16:02:01.528Z,0.60
2023-01-23T16:04:28.121Z,0.57
2023-01-23T16:06:54.667Z,0.64
2023-01-23T16:09:30.903Z,0.18
2023-01-23T16:11:59.211Z,0.49
2023-01-23T16:14:27.934Z,0.49
2023-01-23T16:16:56.718Z,0.62
2023-01-23T16:19:24.837Z,0.60
2023-01-23T16:22:04.013Z,0.62
2023-01-23T16:24:36.509Z,0.63
2023-01-23T16:27:03.688Z,0.60
2023-01-23T16:29:32.361Z,0.62
2023-01-23T16:32:03.217Z,0.65
2023-01-23T16:34:29.878Z,0.29
2023-01-23T16:36:59.620Z,0.42
2023-01-23T16:39:29.529Z,0.43
2023-01-23T16:41:56.167Z,0.19
2023-01-23T16:44:26.276Z,0.21
2023-01-23T16:46:53.903Z,0.17
2023-01-23T16:49:20.881Z,0.11
2023-01-23T16:51:59.278Z,0.25
2023-01-23T16:54:26.416Z,0.49
2023-01-23T16:56:55.341Z,0.36
2023-01-23T16:59:31.032Z,0.30
2023-01-23T17:01:57.866Z,0.31
2023-01-23T17:04:24.706Z,0.13
2023-01-23T17:06:52.681Z,0.22
2023-01-23T17:09:19.267Z,0.18
2023-01-23T17:11:51.463Z,0.32
2023-01-23T17:14:21.707Z,0.38
2023-01-23T17:16:49.576Z,0.28
2023-01-23T17:19:20.571Z,0.36
2023-01-23T17:21:50.309Z,0.45
2023-01-23T17:24:17.678Z,0.67
2023-01-23T17:26:44.647Z,0.43
2023-01-23T17:29:11.423Z,0.32
2023-01-23T17:31:39.061Z,0.35
2023-01-23T17:34:06.747Z,0.46
2023-01-23T17:36:33.510Z,0.67
2023-01-23T17:39:00.394Z,0.42
2023-01-23T17:41:26.961Z,0.47
2023-01-23T17:43:53.675Z,0.62
2023-01-23T17:46:21.484Z,0.44
2023-01-23T17:48:48.298Z,0.54
2023-01-23T17:51:19.885Z,0.29
2023-01-23T17:53:47.064Z,0.24
2023-01-23T17:56:13.839Z,0.39
2023-01-23T17:58:40.501Z,0.47
2023-01-23T18:01:34.074Z,0.39
2023-01-23T18:04:01.917Z,0.27
2023-01-23T18:06:29.805Z,0.44
2023-01-23T18:08:57.058Z,0.39
2023-01-23T18:11:28.297Z,0.45
2023-01-23T18:14:16.966Z,0.35
2023-01-23T18:16:50.333Z,0.47
2023-01-23T18:19:27.173Z,0.57
2023-01-23T18:21:55.944Z,0.63
2023-01-23T18:24:23.066Z,0.52
2023-01-23T18:27:03.351Z,0.34
2023-01-23T18:29:32.210Z,0.41
2023-01-23T18:32:03.083Z,0.32
2023-01-23T18:34:48.520Z,0.28
2023-01-23T18:37:28.845Z,0.38
2023-01-23T18:40:01.398Z,0.16
2023-01-23T18:42:35.560Z,0.05
2023-01-23T18:45:12.400Z,0.30
2023-01-23T18:47:41.647Z,0.39
2023-01-23T18:50:09.246Z,0.35
2023-01-23T18:53:06.699Z,0.38
2023-01-23T18:55:39.859Z,0.37
2023-01-23T18:58:18.540Z,0.40
2023-01-23T19:01:16.192Z,0.14
2023-01-23T19:03:44.045Z,0.21
2023-01-23T19:06:17.964Z,0.07
2023-01-23T19:08:44.692Z,0.19
2023-01-23T19:11:37.223Z,0.45
2023-01-23T19:14:10.666Z,0.33
2023-01-23T19:16:45.748Z,0.42
2023-01-23T19:19:38.647Z,0.19
2023-01-23T19:22:11.543Z,0.36
2023-01-23T19:24:38.380Z,0.43
2023-01-23T19:27:17.175Z,0.42
2023-01-23T19:29:44.031Z,0.65
2023-01-23T19:32:11.209Z,0.30
2023-01-23T19:34:37.916Z,0.20
2023-01-23T19:37:04.698Z,0.50
2023-01-23T19:39:31.447Z,0.48
2023-01-23T19:41:59.114Z,0.29
2023-01-23T19:44:28.660Z,0.23
2023-01-23T19:46:55.230Z,0.17
2023-01-23T19:49:21.837Z,0.22
2023-01-23T19:51:48.432Z,0.38
2023-01-23T19:54:19.424Z,0.43
2023-01-23T19:56:47.794Z,0.45
2023-01-23T19:59:14.396Z,0.44
2023-01-23T20:01:50.146Z,0.48
2023-01-23T20:04:22.158Z,0.16
2023-01-23T20:06:51.643Z,0.14
2023-01-23T20:09:20.969Z,0.12
2023-01-23T20:11:47.605Z,0.06
2023-01-23T20:14:14.322Z,0.12
2023-01-23T20:16:43.022Z,0.26
2023-01-23T20:19:14.888Z,0.31
2023-01-23T20:21:42.477Z,0.31
2023-01-23T20:24:11.486Z,0.22
2023-01-23T20:27:11.491Z,0.21
2023-01-23T20:29:39.257Z,0.23
2023-01-23T20:32:06.101Z,0.27
2023-01-23T20:34:34.152Z,0.30
2023-01-23T20:37:02.147Z,0.20
2023-01-23T20:39:28.682Z,0.24
2023-01-23T20:41:55.303Z,0.29
2023-01-23T20:44:23.601Z,0.47
2023-01-23T20:46:50.414Z,0.59
2023-01-23T20:49:17.210Z,0.55
2023-01-23T20:51:44.009Z,0.51
2023-01-23T20:54:10.600Z,0.56
2023-01-23T20:56:37.206Z,0.32
2023-01-23T20:59:32.779Z,0.32
2023-01-23T21:02:25.262Z,0.45
2023-01-23T21:04:53.153Z,0.76
2023-01-23T21:07:22.996Z,0.54
2023-01-23T21:09:49.688Z,0.20
2023-01-23T21:12:16.285Z,0.08
2023-01-23T21:14:42.880Z,0.46
2023-01-23T21:17:09.862Z,0.65
2023-01-23T21:19:38.845Z,0.32
2023-01-23T21:22:06.752Z,0.30
2023-01-23T21:24:34.559Z,0.37
2023-01-23T21:27:02.819Z,0.34
2023-01-23T21:29:30.547Z,0.13
2023-01-23T21:31:57.623Z,0.10
2023-01-23T21:34:25.604Z,0.31
2023-01-23T21:36:52.917Z,0.14
2023-01-23T21:39:19.897Z,0.04
2023-01-23T21:41:46.821Z,-0.03
2023-01-23T21:44:14.134Z,-0.03
2023-01-23T21:46:41.333Z,0.25
2023-01-23T21:49:09.782Z,0.05
2023-01-23T21:51:37.033Z,0.19
2023-01-23T21:54:04.540Z,0.25
2023-01-23T21:56:31.120Z,0.06
2023-01-23T21:58:58.864Z,0.34
2023-01-23T22:01:50.999Z,0.13
2023-01-23T22:04:20.684Z,0.20
2023-01-23T22:06:47.395Z,0.38
2023-01-23T22:09:17.089Z,0.24
2023-01-23T22:11:44.213Z,0.32
2023-01-23T22:14:11.009Z,0.36
2023-01-23T22:16:48.435Z,0.62
2023-01-23T22:19:18.806Z,0.68
2023-01-23T22:21:46.535Z,0.62
2023-01-23T22:24:15.249Z,0.54
2023-01-23T22:26:42.418Z,0.37
2023-01-23T22:29:09.040Z,0.65
2023-01-23T22:31:35.996Z,0.71
2023-01-23T22:34:02.998Z,0.65
2023-01-23T22:36:29.603Z,0.72
2023-01-23T22:38:56.338Z,0.50
2023-01-23T22:41:23.248Z,0.46
2023-01-23T22:43:59.130Z,0.47
2023-01-23T22:46:25.930Z,0.41
2023-01-23T22:48:52.498Z,0.56
2023-01-23T22:51:23.182Z,0.34
2023-01-23T22:53:51.645Z,0.48
2023-01-23T22:56:18.223Z,0.34
2023-01-23T22:58:48.828Z,0.39
2023-01-23T23:01:15.993Z,0.55
2023-01-23T23:03:42.789Z,0.27
2023-01-23T23:06:13.111Z,0.24
2023-01-23T23:08:40.326Z,0.05
2023-01-23T23:11:12.397Z,0.13
2023-01-23T23:13:40.350Z,0.09
2023-01-23T23:16:09.635Z,0.33
2023-01-23T23:18:38.282Z,0.47
2023-01-23T23:21:10.946Z,0.53
2023-01-23T23:23:37.668Z,0.55
2023-01-23T23:26:05.206Z,0.82
2023-01-23T23:28:32.823Z,0.79
2023-01-23T23:30:59.517Z,0.43
2023-01-23T23:33:26.607Z,0.16
2023-01-23T23:35:53.709Z,0.14
2023-01-23T23:38:20.690Z,0.15
2023-01-23T23:41:03.931Z,0.03
2023-01-23T23:43:30.462Z,0.09
2023-01-23T23:45:59.036Z,0.22
2023-01-23T23:48:26.483Z,0.32
2023-01-23T23:50:53.536Z,0.40
2023-01-23T23:53:20.370Z,0.60
2023-01-23T23:55:47.513Z,0.51
2023-01-23T23:58:15.218Z,0.54
